createdAt,value
2022-10-22T00:00:09.675Z,35.20
2022-10-22T00:02:37.537Z,31.77
2022-10-22T00:05:05.590Z,34.07
2022-10-22T00:07:33.180Z,31.67
2022-10-22T00:10:00.440Z,30.83
2022-10-22T00:12:27.897Z,31.90
2022-10-22T00:14:55.007Z,31.07
2022-10-22T00:17:21.959Z,31.27
2022-10-22T00:19:48.902Z,33.50
2022-10-22T00:22:16.192Z,30.03
2022-10-22T00:24:43.488Z,31.53
2022-10-22T00:27:12.642Z,32.80
2022-10-22T00:29:39.848Z,30.60
2022-10-22T00:32:07.252Z,32.83
2022-10-22T00:34:34.812Z,31.73
2022-10-22T00:37:01.739Z,32.50
2022-10-22T00:39:29.823Z,32.83
2022-10-22T00:41:58.203Z,31.73
2022-10-22T00:45:02.941Z,32.20
2022-10-22T00:47:44.012Z,31.17
2022-10-22T00:50:38.442Z,31.97
2022-10-22T00:53:13.610Z,31.90
2022-10-22T00:55:43.876Z,29.53
2022-10-22T00:58:12.652Z,31.67
2022-10-22T01:00:40.259Z,30.77
2022-10-22T01:03:07.875Z,29.33
2022-10-22T01:05:44.467Z,32.00
2022-10-22T01:08:25.725Z,30.87
2022-10-22T01:11:09.465Z,32.30
2022-10-22T01:13:46.771Z,30.57
2022-10-22T01:16:30.213Z,32.43
2022-10-22T01:19:34.413Z,32.40
2022-10-22T01:22:12.519Z,31.53
2022-10-22T01:25:06.794Z,30.07
2022-10-22T01:28:18.565Z,29.07
2022-10-22T01:30:46.601Z,33.03
2022-10-22T01:33:17.920Z,29.10
2022-10-22T01:35:45.943Z,31.00
2022-10-22T01:38:21.018Z,32.07
2022-10-22T01:40:49.089Z,31.90
2022-10-22T01:43:16.813Z,32.23
2022-10-22T01:45:47.850Z,30.83
2022-10-22T01:48:29.758Z,32.70
2022-10-22T01:50:57.042Z,34.80
2022-10-22T01:54:06.898Z,30.43
2022-10-22T01:57:09.063Z,30.60
2022-10-22T01:59:50.769Z,33.03
2022-10-22T02:02:36.462Z,31.90
2022-10-22T02:05:07.605Z,32.73
2022-10-22T02:08:06.068Z,30.70
2022-10-22T02:10:33.843Z,32.50
2022-10-22T02:13:03.345Z,32.03
2022-10-22T02:15:33.236Z,32.03
2022-10-22T02:18:01.820Z,31.10
2022-10-22T02:20:32.880Z,33.87
2022-10-22T02:23:01.028Z,32.10
2022-10-22T02:25:39.179Z,34.10
2022-10-22T02:28:08.767Z,36.33
2022-10-22T02:30:37.674Z,32.43
2022-10-22T02:33:19.682Z,35.70
2022-10-22T02:35:48.779Z,33.93
2022-10-22T02:38:18.742Z,35.37
2022-10-22T02:40:46.560Z,33.47
2022-10-22T02:43:13.649Z,33.47
2022-10-22T02:45:40.858Z,36.33
2022-10-22T02:48:07.948Z,33.50
2022-10-22T02:50:35.098Z,35.03
2022-10-22T02:53:01.915Z,34.50
2022-10-22T02:55:28.930Z,34.20
2022-10-22T02:57:55.753Z,35.17
2022-10-22T03:00:22.880Z,38.07
2022-10-22T03:02:49.716Z,34.40
2022-10-22T03:05:16.530Z,34.23
2022-10-22T03:07:43.592Z,34.80
2022-10-22T03:10:10.710Z,33.43
2022-10-22T03:12:37.569Z,34.97
2022-10-22T03:15:04.808Z,37.27
2022-10-22T03:17:31.608Z,37.10
2022-10-22T03:19:58.381Z,36.70
2022-10-22T03:22:31.197Z,35.83
2022-10-22T03:25:07.948Z,35.60
2022-10-22T03:27:37.478Z,38.43
2022-10-22T03:30:05.666Z,36.47
2022-10-22T03:32:32.681Z,37.67
2022-10-22T03:37:33.157Z,32.73
2022-10-22T03:40:00.398Z,38.83
2022-10-22T03:42:27.641Z,34.23
2022-10-22T03:44:54.656Z,38.07
2022-10-22T03:47:24.602Z,34.47
2022-10-22T03:49:52.524Z,34.67
2022-10-22T03:52:19.590Z,37.20
2022-10-22T03:54:46.607Z,40.37
2022-10-22T03:57:13.678Z,38.67
2022-10-22T03:59:44.364Z,36.70
2022-10-22T04:02:12.688Z,39.63
2022-10-22T04:04:40.102Z,38.90
2022-10-22T04:07:08.150Z,40.27
2022-10-22T04:09:35.505Z,40.80
2022-10-22T04:12:02.755Z,39.97
2022-10-22T04:14:29.524Z,39.30
2022-10-22T04:16:56.393Z,41.97
2022-10-22T04:19:23.282Z,40.30
2022-10-22T04:21:50.198Z,39.77
2022-10-22T04:24:17.248Z,40.97
2022-10-22T04:26:44.387Z,48.47
2022-10-22T04:29:15.925Z,43.73
2022-10-22T04:31:43.443Z,46.93
2022-10-22T04:34:10.386Z,43.20
2022-10-22T04:36:37.574Z,41.80
2022-10-22T04:39:05.724Z,44.37
2022-10-22T04:41:35.059Z,42.50
2022-10-22T04:44:02.356Z,39.97
2022-10-22T04:46:31.056Z,42.30
2022-10-22T04:48:58.032Z,42.53
2022-10-22T04:51:26.491Z,42.03
2022-10-22T04:53:54.099Z,41.73
2022-10-22T04:56:22.805Z,41.37
2022-10-22T04:58:51.950Z,40.77
2022-10-22T05:01:25.141Z,38.30
2022-10-22T05:03:54.862Z,41.00
2022-10-22T05:06:22.947Z,35.93
2022-10-22T05:08:54.883Z,39.73
2022-10-22T05:11:29.832Z,38.83
2022-10-22T05:13:58.059Z,37.40
2022-10-22T05:16:27.709Z,37.17
2022-10-22T05:18:54.829Z,38.43
2022-10-22T05:21:22.226Z,36.40
2022-10-22T05:23:50.559Z,35.80
2022-10-22T05:26:20.827Z,35.93
2022-10-22T05:28:51.596Z,34.20
2022-10-22T05:31:19.488Z,38.50
2022-10-22T05:33:47.497Z,38.70
2022-10-22T05:36:17.353Z,33.77
2022-10-22T05:38:44.667Z,35.53
2022-10-22T05:41:15.292Z,37.80
2022-10-22T05:43:42.305Z,34.87
2022-10-22T05:46:22.202Z,35.97
2022-10-22T05:48:51.302Z,35.67
2022-10-22T05:51:18.542Z,37.17
2022-10-22T05:53:45.796Z,33.63
2022-10-22T05:56:15.878Z,34.13
2022-10-22T05:58:46.745Z,34.37
2022-10-22T06:01:19.893Z,35.87
2022-10-22T06:03:47.797Z,36.17
2022-10-22T06:06:34.778Z,34.40
2022-10-22T06:09:07.937Z,32.40
2022-10-22T06:11:35.425Z,33.43
2022-10-22T06:14:03.916Z,30.83
2022-10-22T06:16:31.678Z,35.50
2022-10-22T06:19:02.974Z,32.13
2022-10-22T06:21:31.454Z,32.00
2022-10-22T06:24:00.085Z,32.20
2022-10-22T06:26:27.009Z,32.13
2022-10-22T06:28:56.240Z,33.13
2022-10-22T06:31:24.742Z,33.60
2022-10-22T06:33:51.704Z,30.30
2022-10-22T06:36:21.524Z,31.83
2022-10-22T06:38:51.479Z,33.77
2022-10-22T06:41:18.428Z,27.40
2022-10-22T06:43:49.265Z,29.50
2022-10-22T06:46:21.856Z,26.93
2022-10-22T06:48:51.202Z,32.17
2022-10-22T06:51:19.091Z,29.43
2022-10-22T06:53:46.012Z,28.50
2022-10-22T06:56:15.973Z,28.77
2022-10-22T06:58:42.982Z,34.03
2022-10-22T07:01:12.880Z,27.60
2022-10-22T07:03:41.111Z,32.07
2022-10-22T07:06:11.067Z,28.37
2022-10-22T07:08:39.022Z,29.10
2022-10-22T07:11:31.114Z,27.73
2022-10-22T07:13:59.529Z,32.77
2022-10-22T07:16:29.733Z,30.23
2022-10-22T07:19:00.570Z,32.10
2022-10-22T07:21:27.743Z,31.50
2022-10-22T07:23:54.933Z,27.47
2022-10-22T07:26:24.861Z,27.97
2022-10-22T07:28:52.203Z,28.93
2022-10-22T07:31:19.854Z,33.53
2022-10-22T07:33:46.811Z,28.53
2022-10-22T07:36:19.564Z,26.47
2022-10-22T07:38:55.717Z,28.23
2022-10-22T07:41:23.708Z,29.03
2022-10-22T07:43:50.765Z,27.57
2022-10-22T07:46:17.657Z,28.93
2022-10-22T07:48:44.490Z,29.50
2022-10-22T07:51:11.462Z,31.03
2022-10-22T07:53:39.201Z,31.43
2022-10-22T07:56:06.667Z,30.23
2022-10-22T07:58:35.020Z,35.40
2022-10-22T08:01:02.864Z,28.27
2022-10-22T08:03:30.209Z,30.90
2022-10-22T08:05:57.280Z,37.17
2022-10-22T08:08:27.129Z,30.33
2022-10-22T08:10:59.454Z,32.90
2022-10-22T08:13:27.485Z,28.47
2022-10-22T08:15:57.330Z,31.23
2022-10-22T08:18:25.006Z,31.73
2022-10-22T08:20:53.462Z,31.67
2022-10-22T08:23:24.393Z,26.17
2022-10-22T08:25:54.629Z,32.30
2022-10-22T08:28:22.223Z,29.87
2022-10-22T08:30:49.434Z,28.33
2022-10-22T08:33:16.633Z,30.60
2022-10-22T08:35:49.597Z,29.67
2022-10-22T08:38:16.636Z,32.23
2022-10-22T08:43:18.814Z,26.47
2022-10-22T08:46:12.534Z,26.53
2022-10-22T08:48:39.497Z,24.17
2022-10-22T08:51:10.276Z,29.27
2022-10-22T08:53:55.642Z,28.80
2022-10-22T08:56:23.978Z,27.97
2022-10-22T08:59:10.810Z,26.00
2022-10-22T09:01:46.093Z,26.87
2022-10-22T09:04:25.620Z,24.17
2022-10-22T09:06:55.239Z,27.57
2022-10-22T09:09:25.748Z,26.43
2022-10-22T09:11:54.596Z,25.00
2022-10-22T09:14:24.402Z,23.83
2022-10-22T09:17:16.321Z,24.27
2022-10-22T09:20:09.217Z,30.80
2022-10-22T09:22:53.443Z,26.53
2022-10-22T09:25:27.410Z,28.60
2022-10-22T09:27:58.362Z,29.73
2022-10-22T09:30:28.476Z,25.47
2022-10-22T09:33:10.663Z,27.00
2022-10-22T09:36:03.273Z,29.93
2022-10-22T09:38:32.572Z,27.27
2022-10-22T09:41:01.290Z,29.77
2022-10-22T09:43:28.273Z,31.73
2022-10-22T09:46:00.709Z,29.17
2022-10-22T09:48:37.722Z,29.40
2022-10-22T09:51:20.388Z,27.60
2022-10-22T09:53:56.286Z,30.30
2022-10-22T09:56:36.145Z,29.83
2022-10-22T09:59:03.933Z,29.83
2022-10-22T10:01:38.658Z,29.27
2022-10-22T10:04:09.812Z,32.43
2022-10-22T10:06:40.489Z,26.53
2022-10-22T10:09:25.664Z,28.70
2022-10-22T10:12:06.511Z,30.77
2022-10-22T10:14:33.429Z,27.23
2022-10-22T10:17:36.589Z,29.93
2022-10-22T10:20:09.313Z,33.37
2022-10-22T10:22:39.516Z,29.27
2022-10-22T10:25:48.763Z,31.40
2022-10-22T10:28:52.645Z,28.60
2022-10-22T10:31:28.246Z,29.13
2022-10-22T10:34:22.304Z,30.20
2022-10-22T10:37:01.519Z,29.13
2022-10-22T10:39:41.725Z,27.63
2022-10-22T10:42:29.044Z,27.03
2022-10-22T10:45:16.999Z,25.53
2022-10-22T10:48:13.345Z,28.00
2022-10-22T10:51:10.799Z,26.10
2022-10-22T10:54:03.565Z,28.83
2022-10-22T10:56:56.605Z,25.07
2022-10-22T10:59:41.842Z,28.13
2022-10-22T11:02:58.326Z,29.27
2022-10-22T11:05:34.154Z,27.13
2022-10-22T11:08:14.807Z,28.13
2022-10-22T11:11:01.201Z,27.87
2022-10-22T11:13:38.993Z,28.57
2022-10-22T11:16:26.170Z,31.33
2022-10-22T11:19:22.659Z,29.07
2022-10-22T11:22:31.347Z,28.13
2022-10-22T11:25:13.393Z,28.63
2022-10-22T11:27:52.492Z,28.87
2022-10-22T11:30:22.457Z,30.93
2022-10-22T11:33:00.530Z,28.93
2022-10-22T11:35:35.094Z,30.00
2022-10-22T11:38:04.835Z,30.73
2022-10-22T11:40:39.713Z,27.33
2022-10-22T11:43:26.332Z,31.80
2022-10-22T11:46:16.307Z,30.47
2022-10-22T11:48:43.409Z,29.83
2022-10-22T11:51:35.496Z,28.67
2022-10-22T11:54:25.183Z,27.77
2022-10-22T11:57:19.527Z,31.03
2022-10-22T12:00:06.091Z,32.20
2022-10-22T12:02:41.192Z,30.27
2022-10-22T12:05:35.048Z,30.17
2022-10-22T12:08:15.690Z,32.07
2022-10-22T12:11:00.532Z,31.27
2022-10-22T12:13:52.776Z,30.33
2022-10-22T12:16:32.307Z,32.33
2022-10-22T12:19:11.082Z,30.40
2022-10-22T12:21:39.970Z,30.10
2022-10-22T12:24:10.028Z,29.40
2022-10-22T12:26:37.798Z,29.17
2022-10-22T12:29:12.331Z,30.83
2022-10-22T12:31:40.701Z,31.90
2022-10-22T12:34:07.777Z,32.90
2022-10-22T12:36:36.649Z,33.13
2022-10-22T12:39:11.383Z,30.17
2022-10-22T12:41:39.998Z,29.90
2022-10-22T12:44:07.456Z,31.30
2022-10-22T12:46:35.716Z,31.13
2022-10-22T12:49:07.064Z,33.00
2022-10-22T12:51:34.122Z,30.03
2022-10-22T12:54:10.273Z,30.87
2022-10-22T12:56:38.335Z,31.93
2022-10-22T12:59:07.882Z,31.83
2022-10-22T13:01:38.994Z,31.50
2022-10-22T13:04:21.711Z,32.10
2022-10-22T13:06:51.906Z,31.43
2022-10-22T13:09:23.807Z,31.60
2022-10-22T13:12:04.635Z,32.03
2022-10-22T13:14:34.449Z,30.43
2022-10-22T13:17:16.858Z,34.90
2022-10-22T13:20:01.651Z,33.97
2022-10-22T13:22:37.816Z,38.00
2022-10-22T13:25:17.351Z,37.23
2022-10-22T13:27:53.410Z,33.03
2022-10-22T13:30:37.715Z,36.73
2022-10-22T13:33:07.921Z,36.07
2022-10-22T13:35:37.891Z,32.17
2022-10-22T13:38:17.246Z,39.27
2022-10-22T13:40:44.611Z,32.90
2022-10-22T13:43:11.586Z,38.40
2022-10-22T13:45:38.690Z,33.80
2022-10-22T13:48:05.911Z,34.67
2022-10-22T13:50:33.333Z,35.23
2022-10-22T13:53:00.962Z,36.57
2022-10-22T13:55:30.680Z,40.80
2022-10-22T13:58:11.615Z,34.93
2022-10-22T14:00:40.948Z,40.93
2022-10-22T14:03:12.399Z,38.40
2022-10-22T14:05:39.864Z,36.23
2022-10-22T14:08:13.345Z,35.13
2022-10-22T14:10:40.412Z,39.47
2022-10-22T14:13:10.318Z,37.03
2022-10-22T14:15:38.229Z,35.77
2022-10-22T14:18:07.283Z,33.00
2022-10-22T14:20:37.417Z,38.27
2022-10-22T14:23:20.325Z,37.93
2022-10-22T14:25:48.197Z,38.30
2022-10-22T14:28:15.238Z,33.63
2022-10-22T14:30:42.358Z,36.97
2022-10-22T14:33:19.129Z,38.57
2022-10-22T14:35:47.956Z,39.03
2022-10-22T14:38:15.237Z,36.17
2022-10-22T14:40:43.120Z,36.37
2022-10-22T14:43:22.617Z,40.50
2022-10-22T14:45:50.072Z,36.33
2022-10-22T14:50:50.865Z,40.23
2022-10-22T14:53:18.078Z,43.07
2022-10-22T14:55:47.240Z,41.27
2022-10-22T14:58:14.926Z,42.77
2022-10-22T15:00:43.206Z,43.43
2022-10-22T15:03:11.598Z,39.37
2022-10-22T15:05:44.754Z,41.97
2022-10-22T15:08:13.570Z,45.80
2022-10-22T15:10:41.560Z,44.13
2022-10-22T15:13:09.049Z,41.83
2022-10-22T15:15:39.411Z,40.50
2022-10-22T15:18:06.915Z,39.57
2022-10-22T15:20:34.040Z,43.70
2022-10-22T15:23:01.190Z,43.77
2022-10-22T15:25:28.866Z,46.90
2022-10-22T15:28:00.793Z,44.13
2022-10-22T15:30:31.787Z,45.00
2022-10-22T15:32:58.716Z,44.87
2022-10-22T15:35:28.673Z,45.67
2022-10-22T15:37:55.672Z,41.83
2022-10-22T15:40:22.694Z,45.40
2022-10-22T15:42:49.986Z,42.50
2022-10-22T15:45:17.279Z,44.67
2022-10-22T15:47:48.587Z,45.10
2022-10-22T15:50:16.126Z,40.23
2022-10-22T15:52:43.273Z,44.07
2022-10-22T15:55:10.769Z,42.37
2022-10-22T15:57:39.060Z,41.13
2022-10-22T16:00:07.238Z,38.40
2022-10-22T16:02:34.325Z,41.77
2022-10-22T16:05:01.155Z,40.30
2022-10-22T16:07:28.114Z,42.33
2022-10-22T16:10:00.236Z,41.63
2022-10-22T16:12:27.241Z,42.30
2022-10-22T16:14:54.089Z,37.67
2022-10-22T16:17:21.039Z,44.37
2022-10-22T16:19:48.568Z,45.20
2022-10-22T16:22:15.789Z,45.00
2022-10-22T16:24:42.987Z,48.40
2022-10-22T16:27:10.344Z,46.13
2022-10-22T16:29:39.245Z,46.53
2022-10-22T16:32:06.699Z,46.43
2022-10-22T16:34:33.580Z,48.63
2022-10-22T16:37:00.626Z,49.17
2022-10-22T16:39:27.701Z,49.93
2022-10-22T16:41:54.957Z,51.03
2022-10-22T16:44:22.076Z,54.70
2022-10-22T16:46:48.987Z,46.13
2022-10-22T16:49:15.872Z,51.93
2022-10-22T16:51:42.848Z,52.23
2022-10-22T16:54:12.575Z,57.47
2022-10-22T16:56:39.780Z,53.47
2022-10-22T16:59:07.049Z,56.17
2022-10-22T17:01:39.484Z,55.00
2022-10-22T17:04:07.731Z,56.87
2022-10-22T17:06:34.686Z,56.27
2022-10-22T17:09:01.776Z,61.43
2022-10-22T17:11:34.682Z,57.30
2022-10-22T17:14:02.522Z,59.17
2022-10-22T17:16:29.836Z,59.40
2022-10-22T17:18:57.514Z,61.27
2022-10-22T17:21:25.133Z,64.87
2022-10-22T17:23:56.854Z,58.40
2022-10-22T17:26:26.584Z,59.57
2022-10-22T17:28:53.999Z,61.70
2022-10-22T17:31:31.780Z,63.63
2022-10-22T17:34:00.091Z,60.80
2022-10-22T17:36:31.897Z,63.90
2022-10-22T17:39:05.121Z,63.37
2022-10-22T17:41:35.506Z,69.80
2022-10-22T17:44:04.759Z,62.27
2022-10-22T17:46:32.932Z,66.33
2022-10-22T17:49:06.992Z,65.97
2022-10-22T17:51:34.226Z,69.90
2022-10-22T17:54:03.425Z,68.93
2022-10-22T17:56:33.005Z,67.67
2022-10-22T17:58:59.927Z,71.63
2022-10-22T18:01:28.279Z,67.50
2022-10-22T18:04:00.271Z,69.60
2022-10-22T18:06:28.230Z,69.30
2022-10-22T18:08:55.269Z,69.80
2022-10-22T18:11:24.179Z,63.77
2022-10-22T18:13:56.105Z,70.23
2022-10-22T18:16:23.546Z,63.30
2022-10-22T18:18:53.384Z,64.30
2022-10-22T18:21:21.188Z,67.37
2022-10-22T18:23:48.382Z,72.43
2022-10-22T18:26:15.831Z,75.07
2022-10-22T18:28:42.642Z,77.23
2022-10-22T18:31:13.018Z,72.43
2022-10-22T18:33:40.804Z,71.00
2022-10-22T18:36:12.839Z,75.30
2022-10-22T18:38:39.824Z,71.70
2022-10-22T18:41:13.618Z,73.83
2022-10-22T18:43:40.426Z,81.20
2022-10-22T18:46:08.479Z,73.90
2022-10-22T18:48:36.620Z,78.80
2022-10-22T18:51:07.460Z,73.33
2022-10-22T18:53:35.786Z,80.30
2022-10-22T18:56:06.501Z,71.03
2022-10-22T18:58:41.035Z,79.47
2022-10-22T19:01:09.789Z,76.83
2022-10-22T19:03:37.550Z,75.27
2022-10-22T19:06:04.813Z,74.10
2022-10-22T19:08:32.778Z,77.60
2022-10-22T19:10:59.703Z,78.73
2022-10-22T19:13:26.643Z,76.60
2022-10-22T19:15:53.467Z,80.80
2022-10-22T19:18:20.410Z,85.67
2022-10-22T19:20:49.195Z,79.77
2022-10-22T19:23:19.942Z,77.93
2022-10-22T19:25:47.741Z,74.17
2022-10-22T19:28:14.587Z,76.77
2022-10-22T19:30:44.764Z,70.10
2022-10-22T19:33:11.598Z,70.57
2022-10-22T19:35:38.521Z,68.03
2022-10-22T19:38:05.430Z,68.40
2022-10-22T19:40:32.233Z,66.30
2022-10-22T19:42:59.047Z,67.17
2022-10-22T19:45:25.866Z,70.90
2022-10-22T19:47:52.738Z,72.03
2022-10-22T19:50:19.581Z,66.53
2022-10-22T19:52:46.381Z,60.60
2022-10-22T19:55:13.300Z,65.50
2022-10-22T19:57:40.441Z,64.73
2022-10-22T20:00:08.405Z,62.60
2022-10-22T20:02:36.624Z,62.23
2022-10-22T20:05:03.631Z,64.20
2022-10-22T20:07:30.472Z,59.57
2022-10-22T20:09:57.583Z,60.10
2022-10-22T20:12:24.480Z,63.20
2022-10-22T20:14:51.588Z,62.97
2022-10-22T20:17:18.590Z,63.90
2022-10-22T20:19:45.497Z,61.47
2022-10-22T20:22:14.974Z,63.57
2022-10-22T20:24:45.261Z,61.03
2022-10-22T20:27:13.867Z,66.10
2022-10-22T20:29:40.815Z,66.50
2022-10-22T20:32:08.893Z,63.87
2022-10-22T20:34:35.880Z,62.73
2022-10-22T20:37:03.127Z,58.40
2022-10-22T20:39:30.504Z,57.00
2022-10-22T20:41:57.604Z,56.50
2022-10-22T20:44:24.439Z,61.47
2022-10-22T20:46:52.255Z,58.23
2022-10-22T20:49:20.893Z,54.87
2022-10-22T20:51:47.789Z,54.10
2022-10-22T20:54:15.301Z,53.93
2022-10-22T20:56:43.327Z,53.10
2022-10-22T20:59:12.154Z,51.43
2022-10-22T21:01:46.397Z,50.93
2022-10-22T21:04:14.102Z,54.03
2022-10-22T21:06:42.931Z,51.23
2022-10-22T21:09:11.948Z,55.07
2022-10-22T21:11:39.915Z,53.30
2022-10-22T21:14:11.466Z,51.03
2022-10-22T21:16:43.628Z,50.17
2022-10-22T21:19:10.950Z,52.30
2022-10-22T21:21:38.388Z,53.73
2022-10-22T21:24:05.382Z,48.63
2022-10-22T21:26:32.190Z,52.13
2022-10-22T21:28:59.123Z,56.23
2022-10-22T21:31:26.346Z,50.13
2022-10-22T21:33:54.035Z,53.97
2022-10-22T21:36:23.261Z,49.33
2022-10-22T21:38:53.982Z,57.03
2022-10-22T21:41:22.740Z,53.53
2022-10-22T21:43:51.543Z,51.53
2022-10-22T21:46:21.663Z,50.63
2022-10-22T21:48:53.581Z,54.50
2022-10-22T21:51:21.594Z,55.50
2022-10-22T21:53:48.514Z,53.33
2022-10-22T21:56:18.239Z,51.93
2022-10-22T21:58:45.346Z,57.00
2022-10-22T22:01:12.883Z,56.33
2022-10-22T22:03:42.884Z,54.07
2022-10-22T22:06:09.845Z,58.00
2022-10-22T22:08:37.266Z,58.57
2022-10-22T22:11:10.152Z,56.77
2022-10-22T22:13:37.320Z,52.63
2022-10-22T22:16:08.712Z,63.90
2022-10-22T22:18:36.680Z,62.10
2022-10-22T22:21:10.860Z,56.80
2022-10-22T22:23:39.889Z,63.83
2022-10-22T22:26:07.722Z,67.50
2022-10-22T22:28:35.313Z,62.23
2022-10-22T22:31:10.946Z,64.20
2022-10-22T22:33:37.765Z,59.13
2022-10-22T22:36:05.125Z,62.10
2022-10-22T22:38:32.077Z,64.00
2022-10-22T22:41:00.034Z,64.97
2022-10-22T22:43:26.912Z,61.23
2022-10-22T22:46:06.326Z,68.33
2022-10-22T22:48:33.876Z,57.87
2022-10-22T22:51:02.883Z,59.80
2022-10-22T22:53:29.712Z,62.27
2022-10-22T22:56:17.547Z,60.57
2022-10-22T22:58:44.507Z,59.20
2022-10-22T23:01:40.583Z,62.50
2022-10-22T23:04:12.544Z,55.23
2022-10-22T23:06:39.756Z,60.13
2022-10-22T23:09:09.313Z,59.83
2022-10-22T23:11:36.716Z,56.77
2022-10-22T23:14:05.653Z,63.60
2022-10-22T23:16:38.002Z,61.97
2022-10-22T23:19:05.740Z,67.03
2022-10-22T23:21:35.756Z,63.60
2022-10-22T23:24:06.054Z,62.00
2022-10-22T23:26:35.897Z,60.60
2022-10-22T23:29:04.401Z,62.07
2022-10-22T23:31:31.385Z,54.90
2022-10-22T23:33:58.672Z,53.80
2022-10-22T23:36:25.651Z,51.90
2022-10-22T23:38:52.741Z,54.40
2022-10-22T23:41:19.579Z,50.00
2022-10-22T23:43:46.660Z,51.17
2022-10-22T23:46:14.369Z,50.43
2022-10-22T23:48:41.454Z,54.20
2022-10-22T23:51:11.796Z,55.10
2022-10-22T23:53:39.715Z,49.50
2022-10-22T23:56:12.858Z,49.63
2022-10-22T23:58:40.405Z,54.43
